Time;durP1;ratioP1;P1;durP2;ratioP2;P2;SDS_P1;SDS_P2;PMS_P1;PMS_P2;Temp;Humidity;BMP_temperature;BMP_pressure;BME280_temperature;BME280_humidity;BME280_pressure;Samples;Min_cycle;Max_cycle;Signal;HPM_P1;HPM_P2
2023/09/21 00:01:06;;;;;;;2.85;1.08;;;;;;;;;;5006550;28;20176;-74
2023/09/21 00:03:36;;;;;;;3.45;1.67;;;;;;;;;;4993431;28;20076;-73
2023/09/21 00:06:01;;;;;;;2.65;1.67;;;;;;;;;;5011209;28;20049;-74
2023/09/21 00:08:27;;;;;;;3.40;2.00;;;;;;;;;;5011131;28;20127;-72
2023/09/21 00:10:54;;;;;;;3.65;1.30;;;;;;;;;;5034051;28;20052;-73
2023/09/21 00:13:22;;;;;;;1.35;1.00;;;;;;;;;;5015669;28;20041;-73
2023/09/21 00:15:49;;;;;;;3.10;1.70;;;;;;;;;;5021850;28;20110;-72
2023/09/21 00:18:14;;;;;;;1.33;1.20;;;;;;;;;;5017485;28;20087;-73
2023/09/21 00:20:48;;;;;;;2.03;1.42;;;;;;;;;;5004299;28;20238;-73
2023/09/21 00:23:14;;;;;;;1.77;1.08;;;;;;;;;;5013015;28;20453;-75
2023/09/21 00:25:40;;;;;;;2.47;1.38;;;;;;;;;;5011403;28;20048;-73
2023/09/21 00:28:07;;;;;;;3.53;2.05;;;;;;;;;;5013971;28;20540;-75
2023/09/21 00:30:33;;;;;;;3.50;2.20;;;;;;;;;;5013602;28;20041;-73
2023/09/21 00:32:58;;;;;;;2.78;1.77;;;;;;;;;;4990618;28;20115;-72
2023/09/21 00:35:27;;;;;;;2.45;1.80;;;;;;;;;;5017322;28;20084;-73
2023/09/21 00:37:52;;;;;;;2.50;1.48;;;;;;;;;;5016446;28;20057;-74
2023/09/21 00:40:18;;;;;;;2.00;1.80;;;;;;;;;;5006346;28;20033;-72
2023/09/21 00:42:44;;;;;;;1.80;1.70;;;;;;;;;;5035323;28;20056;-74
2023/09/21 00:45:10;;;;;;;2.97;1.70;;;;;;;;;;5032963;28;20053;-73
2023/09/21 00:47:39;;;;;;;3.05;1.65;;;;;;;;;;5018167;28;20045;-73
2023/09/21 00:50:09;;;;;;;3.05;2.00;;;;;;;;;;5020247;28;20040;-74
2023/09/21 00:52:35;;;;;;;3.95;2.10;;;;;;;;;;5029293;28;20041;-73
2023/09/21 00:55:02;;;;;;;2.10;1.83;;;;;;;;;;5024327;28;20378;-72
2023/09/21 00:57:27;;;;;;;2.78;1.70;;;;;;;;;;5031538;28;20048;-73
2023/09/21 00:59:53;;;;;;;3.20;1.75;;;;;;;;;;5016046;28;20029;-73
2023/09/21 01:02:21;;;;;;;2.10;1.50;;;;;;;;;;5028415;28;20108;-74
2023/09/21 01:04:47;;;;;;;2.08;1.20;;;;;;;;;;5020142;28;20103;-73
2023/09/21 01:07:17;;;;;;;3.88;2.05;;;;;;;;;;5042481;28;20045;-74
2023/09/21 01:09:45;;;;;;;1.75;1.40;;;;;;;;;;5035552;28;20108;-74
2023/09/21 01:12:13;;;;;;;1.92;1.40;;;;;;;;;;5036779;28;20092;-74
2023/09/21 01:14:39;;;;;;;2.55;1.63;;;;;;;;;;5027135;28;20033;-73
2023/09/21 01:17:04;;;;;;;2.60;1.73;;;;;;;;;;5040322;28;20041;-73
2023/09/21 01:19:29;;;;;;;1.58;1.20;;;;;;;;;;5019980;28;20045;-74
2023/09/21 01:21:56;;;;;;;2.08;1.63;;;;;;;;;;5036684;28;20057;-73
2023/09/21 01:24:23;;;;;;;2.53;1.30;;;;;;;;;;5034329;28;20032;-73
2023/09/21 01:26:48;;;;;;;2.33;2.13;;;;;;;;;;5041101;28;20062;-74
2023/09/21 01:29:14;;;;;;;2.88;1.80;;;;;;;;;;5029864;28;20037;-72
2023/09/21 01:31:40;;;;;;;2.25;1.70;;;;;;;;;;5038118;28;20045;-73
2023/09/21 01:34:05;;;;;;;2.50;1.83;;;;;;;;;;5036593;28;20086;-73
2023/09/21 01:36:32;;;;;;;2.45;1.88;;;;;;;;;;5035279;28;20108;-72
2023/09/21 01:38:58;;;;;;;2.05;1.50;;;;;;;;;;5040128;28;20083;-74
2023/09/21 01:41:24;;;;;;;1.50;1.20;;;;;;;;;;5018664;28;20029;-74
2023/09/21 01:43:49;;;;;;;2.53;1.65;;;;;;;;;;5011627;28;20053;-72
2023/09/21 01:46:19;;;;;;;2.35;1.80;;;;;;;;;;5032206;28;20048;-73
2023/09/21 01:48:44;;;;;;;2.08;1.60;;;;;;;;;;5019934;28;20048;-72
2023/09/21 01:51:12;;;;;;;2.50;1.60;;;;;;;;;;5038862;28;20115;-72
2023/09/21 01:53:37;;;;;;;3.67;1.73;;;;;;;;;;5030289;28;20056;-73
2023/09/21 01:56:02;;;;;;;1.63;1.30;;;;;;;;;;5024288;28;20640;-73
2023/09/21 01:58:28;;;;;;;1.95;1.60;;;;;;;;;;5039284;28;20049;-72
2023/09/21 02:00:54;;;;;;;3.42;2.25;;;;;;;;;;5043230;28;20040;-72
2023/09/21 02:03:23;;;;;;;1.45;1.23;;;;;;;;;;5038634;28;20037;-74
2023/09/21 02:05:48;;;;;;;1.65;1.20;;;;;;;;;;5035845;28;20033;-73
2023/09/21 02:08:16;;;;;;;1.20;0.98;;;;;;;;;;5035926;28;20968;-73
2023/09/21 02:10:42;;;;;;;1.38;1.15;;;;;;;;;;5024308;28;20055;-74
2023/09/21 02:13:08;;;;;;;1.30;1.20;;;;;;;;;;5039414;28;20037;-73
2023/09/21 02:15:39;;;;;;;1.52;1.40;;;;;;;;;;5036271;28;20050;-74
2023/09/21 02:18:06;;;;;;;2.70;1.45;;;;;;;;;;5036254;28;20528;-73
2023/09/21 02:20:34;;;;;;;2.67;1.30;;;;;;;;;;5042156;28;20060;-73
2023/09/21 02:23:02;;;;;;;1.80;1.17;;;;;;;;;;5017239;28;20826;-73
2023/09/21 02:25:30;;;;;;;1.52;1.10;;;;;;;;;;5034663;28;20069;-73
2023/09/21 02:27:56;;;;;;;2.22;1.42;;;;;;;;;;5031668;28;20072;-73
2023/09/21 02:30:23;;;;;;;2.58;1.58;;;;;;;;;;5022408;28;20030;-73
2023/09/21 02:32:49;;;;;;;2.08;1.48;;;;;;;;;;5021007;28;20033;-73
2023/09/21 02:35:17;;;;;;;3.75;2.17;;;;;;;;;;5019230;28;20042;-74
2023/09/21 02:37:46;;;;;;;1.60;1.27;;;;;;;;;;5008457;28;20028;-73
2023/09/21 02:40:16;;;;;;;1.38;1.08;;;;;;;;;;5042437;28;20036;-72
2023/09/21 02:42:43;;;;;;;1.33;1.00;;;;;;;;;;5034996;28;20044;-74
2023/09/21 02:45:12;;;;;;;2.17;1.73;;;;;;;;;;5030423;28;20045;-72
2023/09/21 02:47:39;;;;;;;2.35;1.60;;;;;;;;;;4984548;28;20044;-73
2023/09/21 02:50:14;;;;;;;2.17;1.40;;;;;;;;;;5006879;28;20719;-72
2023/09/21 02:52:42;;;;;;;3.40;2.42;;;;;;;;;;5028746;28;20041;-73
2023/09/21 02:55:08;;;;;;;1.98;1.33;;;;;;;;;;5022444;28;20100;-73
2023/09/21 02:57:33;;;;;;;2.80;2.25;;;;;;;;;;5029297;28;20517;-72
2023/09/21 03:00:08;;;;;;;2.50;1.52;;;;;;;;;;5034090;28;20106;-73
2023/09/21 03:02:33;;;;;;;2.25;1.35;;;;;;;;;;5020811;28;20033;-73
2023/09/21 03:05:00;;;;;;;2.47;1.83;;;;;;;;;;5034553;28;20037;-73
2023/09/21 03:07:27;;;;;;;2.83;1.63;;;;;;;;;;5034686;28;20056;-73
2023/09/21 03:09:53;;;;;;;3.22;1.50;;;;;;;;;;5025336;28;20084;-73
2023/09/21 03:12:20;;;;;;;2.15;1.27;;;;;;;;;;5028935;28;20048;-73
2023/09/21 03:14:46;;;;;;;2.97;1.70;;;;;;;;;;5027201;28;20072;-74
2023/09/21 03:17:14;;;;;;;1.30;1.20;;;;;;;;;;5013268;28;20805;-73
2023/09/21 03:19:40;;;;;;;3.05;1.83;;;;;;;;;;5038164;28;20407;-74
2023/09/21 03:22:05;;;;;;;1.50;1.40;;;;;;;;;;5024811;28;20037;-73
2023/09/21 03:24:31;;;;;;;2.30;1.60;;;;;;;;;;5028533;28;20044;-74
2023/09/21 03:26:56;;;;;;;2.88;2.00;;;;;;;;;;5041453;28;20033;-74
2023/09/21 03:29:22;;;;;;;2.78;1.90;;;;;;;;;;5033948;28;20064;-73
2023/09/21 03:31:47;;;;;;;2.38;2.00;;;;;;;;;;5023619;28;20041;-75
2023/09/21 03:34:13;;;;;;;2.85;2.00;;;;;;;;;;5038047;28;20033;-73
2023/09/21 03:36:39;;;;;;;1.88;1.58;;;;;;;;;;5040890;28;20043;-72
2023/09/21 03:39:11;;;;;;;3.47;1.80;;;;;;;;;;5037586;28;20044;-72
2023/09/21 03:41:36;;;;;;;3.17;1.90;;;;;;;;;;5038003;28;20155;-73
2023/09/21 03:44:03;;;;;;;2.40;1.40;;;;;;;;;;5025683;28;20121;-74
2023/09/21 03:46:29;;;;;;;1.02;1.00;;;;;;;;;;5040031;28;20048;-73
2023/09/21 03:48:54;;;;;;;2.72;2.08;;;;;;;;;;5040015;28;20033;-74
2023/09/21 03:51:19;;;;;;;1.95;1.52;;;;;;;;;;5041871;28;20734;-73
2023/09/21 03:53:45;;;;;;;2.10;1.50;;;;;;;;;;5036713;28;20032;-73
2023/09/21 03:56:11;;;;;;;2.90;1.63;;;;;;;;;;5036883;28;20674;-73
2023/09/21 03:58:36;;;;;;;3.33;1.85;;;;;;;;;;5032334;28;20036;-73
2023/09/21 04:01:04;;;;;;;2.03;1.65;;;;;;;;;;5035867;28;20075;-73
2023/09/21 04:03:30;;;;;;;1.90;1.50;;;;;;;;;;5032202;28;20095;-72
2023/09/21 04:06:01;;;;;;;2.65;2.03;;;;;;;;;;5035705;28;20029;-73
2023/09/21 04:08:26;;;;;;;1.70;1.60;;;;;;;;;;5032503;28;20071;-73
2023/09/21 04:10:58;;;;;;;2.53;1.50;;;;;;;;;;5037982;28;20069;-73
2023/09/21 04:13:23;;;;;;;2.17;1.20;;;;;;;;;;5013787;28;20057;-74
2023/09/21 04:15:48;;;;;;;1.90;1.38;;;;;;;;;;5035834;28;20041;-74
2023/09/21 04:18:14;;;;;;;2.47;2.08;;;;;;;;;;5037870;28;20033;-73
2023/09/21 04:20:40;;;;;;;2.00;1.25;;;;;;;;;;5035622;28;20405;-73
2023/09/21 04:23:06;;;;;;;2.13;1.13;;;;;;;;;;5034828;28;20437;-74
2023/09/21 04:25:32;;;;;;;1.60;1.08;;;;;;;;;;5026726;28;20048;-75
2023/09/21 04:27:58;;;;;;;2.85;1.95;;;;;;;;;;5016788;28;20044;-73
2023/09/21 04:30:24;;;;;;;2.60;1.33;;;;;;;;;;5038643;28;20041;-71
2023/09/21 04:32:50;;;;;;;1.25;1.13;;;;;;;;;;5033541;28;20084;-72
2023/09/21 04:35:20;;;;;;;1.35;1.08;;;;;;;;;;5033441;28;20112;-72
2023/09/21 04:37:47;;;;;;;2.00;1.58;;;;;;;;;;5039795;28;20029;-73
2023/09/21 04:40:13;;;;;;;2.20;1.75;;;;;;;;;;5030688;28;20121;-75
2023/09/21 04:42:40;;;;;;;2.67;1.83;;;;;;;;;;5037484;28;20047;-72
2023/09/21 04:45:11;;;;;;;1.85;1.60;;;;;;;;;;5045770;28;20120;-72
2023/09/21 04:47:41;;;;;;;1.73;1.52;;;;;;;;;;5020936;28;20063;-74
2023/09/21 04:50:09;;;;;;;3.70;1.90;;;;;;;;;;5006811;28;20052;-72
2023/09/21 04:52:35;;;;;;;2.42;1.23;;;;;;;;;;5023421;28;20116;-74
2023/09/21 04:55:03;;;;;;;3.33;1.60;;;;;;;;;;5033791;28;20206;-71
2023/09/21 04:57:30;;;;;;;2.13;1.70;;;;;;;;;;5031091;28;20041;-72
2023/09/21 04:59:58;;;;;;;2.65;1.77;;;;;;;;;;5032934;28;20048;-75
2023/09/21 05:02:24;;;;;;;2.00;1.20;;;;;;;;;;4997396;28;20428;-73
2023/09/21 05:04:50;;;;;;;2.53;1.63;;;;;;;;;;5033727;28;20044;-72
2023/09/21 05:07:17;;;;;;;2.10;1.30;;;;;;;;;;5031010;28;20109;-72
2023/09/21 05:09:46;;;;;;;2.33;1.38;;;;;;;;;;5034461;28;20048;-73
2023/09/21 05:12:18;;;;;;;1.40;1.30;;;;;;;;;;5035047;28;20410;-74
2023/09/21 05:14:47;;;;;;;1.30;1.20;;;;;;;;;;5032041;28;20040;-74
2023/09/21 05:17:16;;;;;;;7.25;2.17;;;;;;;;;;5034108;28;20040;-71
2023/09/21 05:19:41;;;;;;;3.40;2.08;;;;;;;;;;5026988;28;20048;-72
2023/09/21 05:22:09;;;;;;;2.05;1.50;;;;;;;;;;5036279;28;20102;-72
2023/09/21 05:24:36;;;;;;;1.67;1.30;;;;;;;;;;5027251;28;20052;-72
2023/09/21 05:27:01;;;;;;;2.00;1.50;;;;;;;;;;5017058;28;20084;-72
2023/09/21 05:29:27;;;;;;;2.42;1.60;;;;;;;;;;5040194;28;20040;-72
2023/09/21 05:31:53;;;;;;;2.85;1.70;;;;;;;;;;5026602;28;20754;-72
2023/09/21 05:34:19;;;;;;;1.90;1.63;;;;;;;;;;5022309;28;20040;-71
2023/09/21 05:36:46;;;;;;;3.45;2.60;;;;;;;;;;5034438;28;20029;-71
2023/09/21 05:39:14;;;;;;;1.70;1.60;;;;;;;;;;5029742;28;20076;-73
2023/09/21 05:41:41;;;;;;;3.53;1.75;;;;;;;;;;5038990;28;20053;-72
2023/09/21 05:44:06;;;;;;;6.68;3.22;;;;;;;;;;5034329;28;20563;-73
2023/09/21 05:46:32;;;;;;;9.23;3.33;;;;;;;;;;5018776;28;20033;-72
2023/09/21 05:48:59;;;;;;;4.28;2.90;;;;;;;;;;5031858;28;20033;-72
2023/09/21 05:51:25;;;;;;;2.65;2.10;;;;;;;;;;5035973;28;20033;-73
2023/09/21 05:53:53;;;;;;;7.78;3.75;;;;;;;;;;5039565;28;20047;-72
2023/09/21 05:56:19;;;;;;;3.97;3.15;;;;;;;;;;5031574;28;20421;-73
2023/09/21 05:58:46;;;;;;;5.10;3.35;;;;;;;;;;5035316;28;20033;-74
2023/09/21 06:01:12;;;;;;;4.30;2.92;;;;;;;;;;5024743;28;20102;-74
2023/09/21 06:03:37;;;;;;;3.58;3.03;;;;;;;;;;5043760;28;20032;-73
2023/09/21 06:06:06;;;;;;;8.35;3.60;;;;;;;;;;5031325;28;20041;-74
2023/09/21 06:08:32;;;;;;;4.75;3.00;;;;;;;;;;5028837;28;20033;-74
2023/09/21 06:10:57;;;;;;;6.13;3.22;;;;;;;;;;5027469;28;20041;-72
2023/09/21 06:13:25;;;;;;;3.85;2.55;;;;;;;;;;5022774;28;20116;-72
2023/09/21 06:15:50;;;;;;;5.57;3.40;;;;;;;;;;5009343;28;20047;-73
2023/09/21 06:18:17;;;;;;;6.40;3.85;;;;;;;;;;5029808;28;20552;-74
2023/09/21 06:20:45;;;;;;;5.97;3.55;;;;;;;;;;5038889;28;20413;-72
2023/09/21 06:23:11;;;;;;;4.25;2.45;;;;;;;;;;5031684;28;20044;-72
2023/09/21 06:25:37;;;;;;;5.82;3.97;;;;;;;;;;5035481;28;20374;-73
2023/09/21 06:28:03;;;;;;;5.50;3.95;;;;;;;;;;5025305;28;20374;-72
2023/09/21 06:30:28;;;;;;;8.52;5.00;;;;;;;;;;5015654;28;20053;-72
2023/09/21 06:32:55;;;;;;;7.13;4.22;;;;;;;;;;5030225;28;20041;-74
2023/09/21 06:35:23;;;;;;;7.40;3.80;;;;;;;;;;5035675;28;20051;-72
2023/09/21 06:37:50;;;;;;;6.78;3.88;;;;;;;;;;5036324;28;20620;-72
2023/09/21 06:40:15;;;;;;;8.02;3.70;;;;;;;;;;5034379;28;20045;-74
2023/09/21 06:42:41;;;;;;;8.88;4.15;;;;;;;;;;5022511;28;20493;-74
2023/09/21 06:45:07;;;;;;;4.50;2.97;;;;;;;;;;5003820;28;20041;-74
2023/09/21 06:47:32;;;;;;;6.93;3.65;;;;;;;;;;5032151;28;20029;-72
2023/09/21 06:49:58;;;;;;;5.65;3.67;;;;;;;;;;5030048;28;20525;-72
2023/09/21 06:52:23;;;;;;;4.57;3.30;;;;;;;;;;5021779;28;20064;-72
2023/09/21 06:54:49;;;;;;;5.03;3.42;;;;;;;;;;5022705;28;20084;-74
2023/09/21 06:57:16;;;;;;;2.22;1.95;;;;;;;;;;5022832;28;20060;-74
2023/09/21 06:59:42;;;;;;;5.40;3.15;;;;;;;;;;5026616;28;20049;-74
2023/09/21 07:02:07;;;;;;;5.88;3.78;;;;;;;;;;5034352;28;20532;-74
2023/09/21 07:04:33;;;;;;;5.47;3.63;;;;;;;;;;5037838;28;20102;-75
2023/09/21 07:07:05;;;;;;;1.98;1.48;;;;;;;;;;5038932;28;20033;-74
2023/09/21 07:09:32;;;;;;;1.25;1.15;;;;;;;;;;5018951;28;20084;-73
2023/09/21 07:11:58;;;;;;;1.98;1.17;;;;;;;;;;5010201;28;20103;-73
2023/09/21 07:14:23;;;;;;;1.10;0.90;;;;;;;;;;5014626;28;20538;-73
2023/09/21 07:16:48;;;;;;;5.20;3.35;;;;;;;;;;5023393;28;20155;-73
2023/09/21 07:19:14;;;;;;;4.45;2.75;;;;;;;;;;5018328;28;20029;-74
2023/09/21 07:21:45;;;;;;;1.52;1.40;;;;;;;;;;5035275;28;20559;-73
2023/09/21 07:24:11;;;;;;;2.35;1.33;;;;;;;;;;5006871;28;20313;-73
2023/09/21 07:26:36;;;;;;;1.10;0.98;;;;;;;;;;5034424;28;20037;-72
2023/09/21 07:29:05;;;;;;;1.55;1.35;;;;;;;;;;5034602;28;20517;-74
2023/09/21 07:31:33;;;;;;;1.45;1.35;;;;;;;;;;5040749;28;20496;-73
2023/09/21 07:33:59;;;;;;;2.28;1.08;;;;;;;;;;5019946;28;20592;-74
2023/09/21 07:36:24;;;;;;;1.30;1.00;;;;;;;;;;5030489;28;20433;-73
2023/09/21 07:38:52;;;;;;;1.83;1.15;;;;;;;;;;5024293;28;20033;-74
2023/09/21 07:41:17;;;;;;;2.72;1.58;;;;;;;;;;5032756;28;20120;-73
2023/09/21 07:43:43;;;;;;;4.60;2.92;;;;;;;;;;5022731;28;20170;-72
2023/09/21 07:46:08;;;;;;;2.25;1.90;;;;;;;;;;5017264;28;20418;-75
2023/09/21 07:48:33;;;;;;;4.30;2.97;;;;;;;;;;5025347;28;20028;-73
2023/09/21 07:51:05;;;;;;;3.10;2.20;;;;;;;;;;5031768;28;20032;-74
2023/09/21 07:53:30;;;;;;;3.38;2.40;;;;;;;;;;5014389;28;20050;-72
2023/09/21 07:56:02;;;;;;;3.38;2.90;;;;;;;;;;5029289;28;20052;-75
2023/09/21 07:58:28;;;;;;;2.75;2.10;;;;;;;;;;5021253;28;20041;-72
2023/09/21 08:00:55;;;;;;;2.33;1.80;;;;;;;;;;5037141;28;20032;-72
2023/09/21 08:03:25;;;;;;;2.30;1.75;;;;;;;;;;5042670;28;20037;-74
2023/09/21 08:05:51;;;;;;;3.15;1.98;;;;;;;;;;5027518;28;20043;-73
2023/09/21 08:08:16;;;;;;;2.55;2.10;;;;;;;;;;5034449;28;20041;-73
2023/09/21 08:10:42;;;;;;;2.90;2.00;;;;;;;;;;5036340;28;20039;-72
2023/09/21 08:13:08;;;;;;;4.13;2.97;;;;;;;;;;5039777;28;20076;-75
2023/09/21 08:15:33;;;;;;;4.68;3.30;;;;;;;;;;5041621;28;20037;-73
2023/09/21 08:18:00;;;;;;;4.70;2.55;;;;;;;;;;5039888;28;20037;-76
2023/09/21 08:20:26;;;;;;;4.32;3.33;;;;;;;;;;5024925;28;20033;-75
2023/09/21 08:22:51;;;;;;;4.90;3.38;;;;;;;;;;5039648;28;20123;-75
2023/09/21 08:25:17;;;;;;;6.88;3.60;;;;;;;;;;5041362;28;20044;-72
2023/09/21 08:27:42;;;;;;;6.80;3.63;;;;;;;;;;5031121;28;20080;-72
2023/09/21 08:30:08;;;;;;;9.82;3.72;;;;;;;;;;5016677;28;20128;-75
2023/09/21 08:32:33;;;;;;;5.00;2.78;;;;;;;;;;5013858;28;20041;-72
2023/09/21 08:34:59;;;;;;;4.60;2.78;;;;;;;;;;5005664;28;20510;-73
2023/09/21 08:37:24;;;;;;;4.45;3.42;;;;;;;;;;5016018;28;20037;-73
2023/09/21 08:39:50;;;;;;;5.38;3.92;;;;;;;;;;5019844;28;20128;-73
2023/09/21 08:42:15;;;;;;;3.22;2.60;;;;;;;;;;5018034;28;20036;-74
2023/09/21 08:44:43;;;;;;;7.43;4.18;;;;;;;;;;5020536;28;20041;-72
2023/09/21 08:47:14;;;;;;;4.50;2.97;;;;;;;;;;5015393;28;20033;-74
2023/09/21 08:49:46;;;;;;;5.93;2.78;;;;;;;;;;5021720;28;20052;-75
2023/09/21 08:52:15;;;;;;;8.30;4.28;;;;;;;;;;5012436;28;20513;-74
2023/09/21 08:54:42;;;;;;;5.30;3.28;;;;;;;;;;5021457;28;20099;-73
2023/09/21 08:57:13;;;;;;;7.65;4.47;;;;;;;;;;5024270;28;20038;-74
2023/09/21 08:59:42;;;;;;;3.70;2.78;;;;;;;;;;5016974;28;20694;-75
2023/09/21 09:02:13;;;;;;;6.43;3.67;;;;;;;;;;5000561;28;20391;-74
2023/09/21 09:04:43;;;;;;;1.70;1.48;;;;;;;;;;5036180;28;20033;-73
2023/09/21 09:07:12;;;;;;;3.75;2.35;;;;;;;;;;5037756;28;20111;-75
2023/09/21 09:09:39;;;;;;;5.25;3.58;;;;;;;;;;5048024;28;20029;-72
2023/09/21 09:12:25;;;;;;;5.30;3.53;;;;;;;;;;5040238;28;20052;-75
2023/09/21 09:14:51;;;;;;;4.25;2.63;;;;;;;;;;5009093;28;20457;-74
2023/09/21 09:17:18;;;;;;;5.70;3.38;;;;;;;;;;5036085;28;20594;-74
2023/09/21 09:19:46;;;;;;;5.32;3.92;;;;;;;;;;5019769;28;20062;-73
2023/09/21 09:22:13;;;;;;;6.70;3.70;;;;;;;;;;5040518;28;20033;-73
2023/09/21 09:24:38;;;;;;;5.05;3.05;;;;;;;;;;5036321;28;20043;-73
2023/09/21 09:27:04;;;;;;;3.97;2.60;;;;;;;;;;5012742;28;20049;-74
2023/09/21 09:29:29;;;;;;;6.68;3.67;;;;;;;;;;5036822;28;20041;-74
2023/09/21 09:31:55;;;;;;;10.00;4.13;;;;;;;;;;5035773;28;20041;-74
2023/09/21 09:34:22;;;;;;;5.25;3.30;;;;;;;;;;5035827;28;20112;-74
2023/09/21 09:36:50;;;;;;;3.28;2.47;;;;;;;;;;5036551;28;20707;-73
2023/09/21 09:39:15;;;;;;;4.75;2.80;;;;;;;;;;5036087;28;20041;-73
2023/09/21 09:41:41;;;;;;;7.57;2.95;;;;;;;;;;5025844;28;20060;-73
2023/09/21 09:44:10;;;;;;;5.53;3.22;;;;;;;;;;5036812;28;20049;-72
2023/09/21 09:46:41;;;;;;;8.77;4.40;;;;;;;;;;5035978;28;20502;-74
2023/09/21 09:49:10;;;;;;;4.10;3.70;;;;;;;;;;5036470;28;20545;-74
2023/09/21 09:51:41;;;;;;;2.95;1.92;;;;;;;;;;5018009;28;20041;-73
2023/09/21 09:54:09;;;;;;;6.57;3.90;;;;;;;;;;5036354;28;20044;-73
2023/09/21 09:56:37;;;;;;;4.60;3.17;;;;;;;;;;5009627;28;20223;-73
2023/09/21 09:59:04;;;;;;;3.88;2.83;;;;;;;;;;5024191;28;20033;-73
2023/09/21 10:01:33;;;;;;;6.15;4.63;;;;;;;;;;5018777;28;20045;-73
2023/09/21 10:04:00;;;;;;;2.20;1.80;;;;;;;;;;5018593;28;20033;-73
2023/09/21 10:06:27;;;;;;;4.75;3.47;;;;;;;;;;5028275;28;20037;-75
2023/09/21 10:08:56;;;;;;;3.92;2.40;;;;;;;;;;5012932;28;20033;-74
2023/09/21 10:11:23;;;;;;;2.92;1.73;;;;;;;;;;5030977;28;20670;-73
2023/09/21 10:13:51;;;;;;;4.40;4.00;;;;;;;;;;5028653;28;20076;-73
2023/09/21 10:16:18;;;;;;;2.17;1.77;;;;;;;;;;5035624;28;20417;-74
2023/09/21 10:18:44;;;;;;;5.35;3.28;;;;;;;;;;5037264;28;20090;-73
2023/09/21 10:21:30;;;;;;;2.17;1.65;;;;;;;;;;5030563;28;20041;-74
2023/09/21 10:24:04;;;;;;;1.13;1.02;;;;;;;;;;5008512;28;20065;-74
2023/09/21 10:26:34;;;;;;;4.43;3.08;;;;;;;;;;5044682;28;20125;-74
2023/09/21 10:29:04;;;;;;;3.78;3.38;;;;;;;;;;5039787;28;20037;-73
2023/09/21 10:31:32;;;;;;;3.55;3.13;;;;;;;;;;5035249;28;20128;-75
2023/09/21 10:33:58;;;;;;;3.80;2.80;;;;;;;;;;5038076;28;20036;-73
2023/09/21 10:36:26;;;;;;;3.50;2.47;;;;;;;;;;4984106;28;20047;-75
2023/09/21 10:39:09;;;;;;;1.75;1.30;;;;;;;;;;4997327;28;20050;-73
2023/09/21 10:41:35;;;;;;;1.75;1.33;;;;;;;;;;5020749;28;20033;-73
2023/09/21 10:44:06;;;;;;;6.63;3.92;;;;;;;;;;5004528;28;20037;-73
2023/09/21 10:46:34;;;;;;;4.32;3.90;;;;;;;;;;5023122;28;20152;-73
2023/09/21 10:49:08;;;;;;;4.50;3.97;;;;;;;;;;5029982;28;20044;-73
2023/09/21 10:51:39;;;;;;;2.80;1.80;;;;;;;;;;5016902;28;20037;-75
2023/09/21 10:54:08;;;;;;;2.13;1.92;;;;;;;;;;5035588;28;20394;-73
2023/09/21 10:56:37;;;;;;;1.63;1.52;;;;;;;;;;5037844;28;20032;-73
2023/09/21 10:59:03;;;;;;;4.85;3.85;;;;;;;;;;5024548;28;20140;-73
2023/09/21 11:01:29;;;;;;;3.35;2.70;;;;;;;;;;5034857;28;20053;-73
2023/09/21 11:03:54;;;;;;;2.22;1.65;;;;;;;;;;5031943;28;20943;-72
2023/09/21 11:06:20;;;;;;;2.78;1.83;;;;;;;;;;5027884;28;20116;-73
2023/09/21 11:08:47;;;;;;;1.60;1.50;;;;;;;;;;5030722;28;20040;-73
2023/09/21 11:11:13;;;;;;;2.42;1.63;;;;;;;;;;5036140;28;20424;-73
2023/09/21 11:13:39;;;;;;;2.30;2.10;;;;;;;;;;5020957;28;20509;-73
2023/09/21 11:16:05;;;;;;;3.00;2.70;;;;;;;;;;5032667;28;20060;-73
2023/09/21 11:18:31;;;;;;;2.88;2.30;;;;;;;;;;5023418;28;20036;-74
2023/09/21 11:20:58;;;;;;;1.67;1.50;;;;;;;;;;5019082;28;20033;-73
2023/09/21 11:23:23;;;;;;;1.90;1.75;;;;;;;;;;5007437;28;20037;-73
2023/09/21 11:25:49;;;;;;;2.80;2.13;;;;;;;;;;5016976;28;20044;-73
2023/09/21 11:28:24;;;;;;;2.35;2.15;;;;;;;;;;5000802;28;20218;-74
2023/09/21 11:30:51;;;;;;;2.38;1.25;;;;;;;;;;5002491;28;20041;-73
2023/09/21 11:33:19;;;;;;;2.28;2.08;;;;;;;;;;5017191;28;20041;-72
2023/09/21 11:35:45;;;;;;;3.53;2.50;;;;;;;;;;5017698;28;20033;-72
2023/09/21 11:38:11;;;;;;;3.15;1.98;;;;;;;;;;5018502;28;20049;-73
2023/09/21 11:40:37;;;;;;;1.60;1.50;;;;;;;;;;5001542;28;20661;-72
2023/09/21 11:43:02;;;;;;;4.90;2.97;;;;;;;;;;5018116;28;20064;-74
2023/09/21 11:45:28;;;;;;;4.68;3.28;;;;;;;;;;5017291;28;20064;-74
2023/09/21 11:47:56;;;;;;;2.08;1.58;;;;;;;;;;5018226;28;20067;-74
2023/09/21 11:50:25;;;;;;;1.30;1.20;;;;;;;;;;5008926;28;20823;-73
2023/09/21 11:52:54;;;;;;;4.00;3.08;;;;;;;;;;4996177;28;20034;-73
2023/09/21 11:55:23;;;;;;;2.03;1.80;;;;;;;;;;5017916;28;20049;-73
2023/09/21 11:57:49;;;;;;;1.80;1.10;;;;;;;;;;5015671;28;20430;-74
2023/09/21 12:00:26;;;;;;;2.35;2.05;;;;;;;;;;5016175;28;20048;-73
2023/09/21 12:02:53;;;;;;;1.58;1.40;;;;;;;;;;5008078;28;20045;-75
2023/09/21 12:05:20;;;;;;;2.50;1.77;;;;;;;;;;5017661;28;20044;-75
2023/09/21 12:07:46;;;;;;;3.05;1.88;;;;;;;;;;5007745;28;20103;-73
2023/09/21 12:10:13;;;;;;;2.22;2.10;;;;;;;;;;5026389;28;20033;-73
2023/09/21 12:12:40;;;;;;;2.10;1.90;;;;;;;;;;5010174;28;20041;-73
2023/09/21 12:15:06;;;;;;;1.75;1.60;;;;;;;;;;5013957;28;20030;-73
2023/09/21 12:17:32;;;;;;;3.08;2.28;;;;;;;;;;4999169;28;20042;-73
2023/09/21 12:20:00;;;;;;;2.88;2.15;;;;;;;;;;5003029;28;20398;-73
2023/09/21 12:22:26;;;;;;;2.72;1.92;;;;;;;;;;5013342;28;20080;-74
2023/09/21 12:24:54;;;;;;;2.47;1.80;;;;;;;;;;5011961;28;20498;-73
2023/09/21 12:27:20;;;;;;;2.20;1.50;;;;;;;;;;5018790;28;20048;-74
2023/09/21 12:29:45;;;;;;;2.45;2.13;;;;;;;;;;5013239;28;20046;-73
2023/09/21 12:32:11;;;;;;;2.05;1.50;;;;;;;;;;4997728;28;20508;-74
2023/09/21 12:34:37;;;;;;;2.20;2.00;;;;;;;;;;5009506;28;20398;-74
2023/09/21 12:37:02;;;;;;;2.40;2.05;;;;;;;;;;5014534;28;20048;-75
2023/09/21 12:39:28;;;;;;;2.38;1.50;;;;;;;;;;5013974;28;21300;-73
2023/09/21 12:41:55;;;;;;;2.42;2.17;;;;;;;;;;5013179;28;20025;-74
2023/09/21 12:44:20;;;;;;;2.28;1.98;;;;;;;;;;5017846;28;20502;-73
2023/09/21 12:46:46;;;;;;;2.47;1.98;;;;;;;;;;5014406;28;20030;-73
2023/09/21 12:49:11;;;;;;;1.60;1.50;;;;;;;;;;5004409;28;20414;-73
2023/09/21 12:51:37;;;;;;;4.07;2.85;;;;;;;;;;5015951;28;20104;-72
2023/09/21 12:54:03;;;;;;;2.90;2.33;;;;;;;;;;5009854;28;20034;-75
2023/09/21 12:56:28;;;;;;;2.00;1.75;;;;;;;;;;5013050;28;20068;-75
2023/09/21 12:58:55;;;;;;;3.38;2.15;;;;;;;;;;5021978;28;20087;-75
2023/09/21 13:01:22;;;;;;;2.22;1.70;;;;;;;;;;5019092;28;20030;-74
2023/09/21 13:03:48;;;;;;;2.20;2.00;;;;;;;;;;5006530;28;20042;-75
2023/09/21 13:06:13;;;;;;;2.20;1.90;;;;;;;;;;5018207;28;20115;-74
2023/09/21 13:08:40;;;;;;;1.88;1.63;;;;;;;;;;5024476;28;20037;-72
2023/09/21 13:11:06;;;;;;;3.95;2.47;;;;;;;;;;5001872;28;20124;-72
2023/09/21 13:13:35;;;;;;;2.42;2.00;;;;;;;;;;5024607;28;20479;-73
2023/09/21 13:16:04;;;;;;;7.18;2.90;;;;;;;;;;5005488;28;20080;-74
2023/09/21 13:18:29;;;;;;;3.85;3.15;;;;;;;;;;5027841;28;20524;-75
2023/09/21 13:20:55;;;;;;;3.72;2.40;;;;;;;;;;5018309;28;20033;-73
2023/09/21 13:23:20;;;;;;;6.78;3.22;;;;;;;;;;5018738;28;20065;-73
2023/09/21 13:25:46;;;;;;;2.10;1.90;;;;;;;;;;5021131;28;20075;-72
2023/09/21 13:28:11;;;;;;;2.33;2.10;;;;;;;;;;5024258;28;20045;-73
2023/09/21 13:30:37;;;;;;;1.77;1.67;;;;;;;;;;5016225;28;20083;-73
2023/09/21 13:33:02;;;;;;;3.28;2.10;;;;;;;;;;5016302;28;20133;-73
2023/09/21 13:35:29;;;;;;;2.08;1.60;;;;;;;;;;5020432;28;20040;-75
2023/09/21 13:37:54;;;;;;;2.40;2.20;;;;;;;;;;5019575;28;20029;-72
2023/09/21 13:40:20;;;;;;;1.77;1.67;;;;;;;;;;5021328;28;20030;-73
2023/09/21 13:42:45;;;;;;;3.00;2.10;;;;;;;;;;5021422;28;20127;-73
2023/09/21 13:45:12;;;;;;;2.17;1.73;;;;;;;;;;5014313;28;20040;-74
2023/09/21 13:47:39;;;;;;;2.85;2.60;;;;;;;;;;5014608;28;20036;-74
2023/09/21 13:50:05;;;;;;;4.30;3.50;;;;;;;;;;5013238;28;20046;-74
2023/09/21 13:52:31;;;;;;;2.83;2.42;;;;;;;;;;5011883;28;20794;-75
2023/09/21 13:54:58;;;;;;;2.97;2.00;;;;;;;;;;5011685;28;20044;-73
2023/09/21 13:57:28;;;;;;;3.45;2.55;;;;;;;;;;5014892;28;20037;-73
2023/09/21 13:59:54;;;;;;;2.65;2.20;;;;;;;;;;5035692;28;20041;-73
2023/09/21 14:02:20;;;;;;;1.50;1.40;;;;;;;;;;5044250;28;20117;-72
2023/09/21 14:04:45;;;;;;;1.85;1.30;;;;;;;;;;5042249;28;20049;-74
2023/09/21 14:07:11;;;;;;;6.03;4.35;;;;;;;;;;5041214;28;20095;-72
2023/09/21 14:09:38;;;;;;;2.15;1.92;;;;;;;;;;5038689;28;20048;-75
2023/09/21 14:12:05;;;;;;;2.35;2.00;;;;;;;;;;5033143;28;20041;-72
2023/09/21 14:14:30;;;;;;;2.38;2.05;;;;;;;;;;5037497;28;20881;-74
2023/09/21 14:16:56;;;;;;;2.55;2.35;;;;;;;;;;5014248;28;20123;-74
2023/09/21 14:19:24;;;;;;;3.22;2.40;;;;;;;;;;5040354;28;20033;-74
2023/09/21 14:21:51;;;;;;;2.17;2.00;;;;;;;;;;5033579;28;20186;-75
2023/09/21 14:24:18;;;;;;;3.13;2.83;;;;;;;;;;5028685;28;20033;-72
2023/09/21 14:26:44;;;;;;;3.95;3.58;;;;;;;;;;5013147;28;20037;-73
2023/09/21 14:29:09;;;;;;;4.75;3.70;;;;;;;;;;5032426;28;20041;-72
2023/09/21 14:31:34;;;;;;;2.30;1.80;;;;;;;;;;5029544;28;20037;-74
2023/09/21 14:34:00;;;;;;;1.92;1.83;;;;;;;;;;5024337;28;20537;-74
2023/09/21 14:36:25;;;;;;;2.30;2.10;;;;;;;;;;5029726;28;20525;-73
2023/09/21 14:38:51;;;;;;;2.42;2.22;;;;;;;;;;5022849;28;20120;-73
2023/09/21 14:41:16;;;;;;;2.88;2.58;;;;;;;;;;5009487;28;20060;-72